createdAt,value
2018-01-24T00:01:28.602Z,99.90
2018-01-24T00:04:02.911Z,99.90
2018-01-24T00:06:36.424Z,99.90
2018-01-24T00:09:10.006Z,99.90
2018-01-24T00:11:43.565Z,99.90
2018-01-24T00:14:17.251Z,99.90
2018-01-24T00:16:50.835Z,99.90
2018-01-24T00:19:24.449Z,99.90
2018-01-24T00:21:58.054Z,99.90
2018-01-24T00:24:32.532Z,99.90
2018-01-24T00:27:06.154Z,99.90
2018-01-24T00:29:39.725Z,99.90
2018-01-24T00:32:13.226Z,99.90
2018-01-24T00:34:47.549Z,99.90
2018-01-24T00:37:21.270Z,99.90
2018-01-24T00:39:55.569Z,99.90
2018-01-24T00:42:29.302Z,99.90
2018-01-24T00:45:03.777Z,99.90
2018-01-24T00:47:37.321Z,99.90
2018-01-24T00:50:10.873Z,99.90
2018-01-24T00:52:44.418Z,99.90
2018-01-24T00:55:18.136Z,99.90
2018-01-24T00:57:51.671Z,99.90
2018-01-24T01:00:25.267Z,99.90
2018-01-24T01:02:58.963Z,99.90
2018-01-24T01:05:33.423Z,99.90
2018-01-24T01:08:07.739Z,99.90
2018-01-24T01:10:41.428Z,99.90
2018-01-24T01:13:15.032Z,99.90
2018-01-24T01:15:48.543Z,99.90
2018-01-24T01:18:22.114Z,99.90
2018-01-24T01:20:55.705Z,99.90
2018-01-24T01:23:29.229Z,99.90
2018-01-24T01:26:03.560Z,99.90
2018-01-24T01:28:37.984Z,99.90
2018-01-24T01:31:11.711Z,99.90
2018-01-24T01:33:45.226Z,99.90
2018-01-24T01:36:19.611Z,99.90
2018-01-24T01:38:54.920Z,99.90
2018-01-24T01:41:28.457Z,99.90
2018-01-24T01:44:02.024Z,99.90
2018-01-24T01:46:35.611Z,99.90
2018-01-24T01:49:09.336Z,99.90
2018-01-24T01:51:42.892Z,99.90
2018-01-24T01:54:16.517Z,99.90
2018-01-24T01:56:50.150Z,99.90
2018-01-24T01:59:23.842Z,99.90
2018-01-24T02:01:58.215Z,99.90
2018-01-24T02:04:31.841Z,99.90
2018-01-24T02:07:05.438Z,99.90
2018-01-24T02:09:38.997Z,99.90
2018-01-24T02:12:12.677Z,99.90
2018-01-24T02:14:46.232Z,99.90
2018-01-24T02:17:19.891Z,99.90
2018-01-24T02:19:53.562Z,99.90
2018-01-24T02:22:27.202Z,99.90
2018-01-24T02:25:00.767Z,99.90
2018-01-24T02:27:34.411Z,99.90
2018-01-24T02:30:08.000Z,99.90
2018-01-24T02:32:41.571Z,99.90
2018-01-24T02:35:15.296Z,99.90
2018-01-24T02:37:49.688Z,99.90
2018-01-24T02:40:23.183Z,99.90
2018-01-24T02:42:56.819Z,99.90
2018-01-24T02:45:30.323Z,99.90
2018-01-24T02:48:03.999Z,99.90
2018-01-24T02:50:37.648Z,99.90
2018-01-24T02:53:11.317Z,99.90
2018-01-24T02:55:44.987Z,99.90
2018-01-24T02:58:18.558Z,99.90
2018-01-24T03:00:52.921Z,99.90
2018-01-24T03:03:26.614Z,99.90
2018-01-24T03:06:00.238Z,99.90
2018-01-24T03:08:33.744Z,99.90
2018-01-24T03:11:07.325Z,99.90
2018-01-24T03:13:41.627Z,99.90
2018-01-24T03:16:15.291Z,99.90
2018-01-24T03:18:48.877Z,99.90
2018-01-24T03:21:23.142Z,99.90
2018-01-24T03:23:56.888Z,99.90
2018-01-24T03:26:30.588Z,99.90
2018-01-24T03:29:04.240Z,99.90
2018-01-24T03:31:38.647Z,99.90
2018-01-24T03:34:12.157Z,99.90
2018-01-24T03:36:45.880Z,99.90
2018-01-24T03:39:19.480Z,99.90
2018-01-24T03:41:52.994Z,99.90
2018-01-24T03:44:26.590Z,99.90
2018-01-24T03:47:00.187Z,99.90
2018-01-24T03:49:34.537Z,99.90
2018-01-24T03:52:08.213Z,99.90
2018-01-24T03:54:41.808Z,99.90
2018-01-24T03:57:15.462Z,99.90
2018-01-24T03:59:48.996Z,99.90
2018-01-24T04:02:22.522Z,99.90
2018-01-24T04:04:56.075Z,99.90
2018-01-24T04:07:29.717Z,99.90
2018-01-24T04:10:03.287Z,99.90
2018-01-24T04:12:36.789Z,99.90
2018-01-24T04:15:10.487Z,99.90
2018-01-24T04:17:44.106Z,99.90
2018-01-24T04:20:17.603Z,99.90
2018-01-24T04:22:51.291Z,99.90
2018-01-24T04:25:25.109Z,99.90
2018-01-24T04:27:58.697Z,99.90
2018-01-24T04:30:32.560Z,99.90
2018-01-24T04:33:06.278Z,99.90
2018-01-24T04:35:40.071Z,99.90
2018-01-24T04:38:13.616Z,99.90
2018-01-24T04:40:47.211Z,99.90
2018-01-24T04:43:20.824Z,99.90
2018-01-24T04:45:54.474Z,99.90
2018-01-24T04:48:28.024Z,99.90
2018-01-24T04:51:01.524Z,99.90
2018-01-24T04:53:35.062Z,99.90
2018-01-24T04:56:08.627Z,99.90
2018-01-24T04:58:42.249Z,99.90
2018-01-24T05:01:15.730Z,99.90
2018-01-24T05:03:50.246Z,99.90
2018-01-24T05:06:23.768Z,99.90
2018-01-24T05:08:57.638Z,99.90
2018-01-24T05:11:31.960Z,99.90
2018-01-24T05:14:05.695Z,99.90
2018-01-24T05:16:39.216Z,99.90
2018-01-24T05:19:12.887Z,99.90
2018-01-24T05:21:47.411Z,99.90
2018-01-24T05:24:21.083Z,99.90
2018-01-24T05:26:54.635Z,99.90
2018-01-24T05:29:28.344Z,99.90
2018-01-24T05:32:01.910Z,99.90
2018-01-24T05:34:35.601Z,99.90
2018-01-24T05:37:09.178Z,99.90
2018-01-24T05:39:43.628Z,99.90
2018-01-24T05:42:17.136Z,99.90
2018-01-24T05:44:50.915Z,99.90
2018-01-24T05:47:25.252Z,99.90
2018-01-24T05:49:58.892Z,99.90
2018-01-24T05:52:32.423Z,99.90
2018-01-24T05:55:06.806Z,99.90
2018-01-24T05:57:40.352Z,99.90
2018-01-24T06:00:14.007Z,99.90
2018-01-24T06:02:47.711Z,99.90
2018-01-24T06:05:21.263Z,99.90
2018-01-24T06:07:55.594Z,99.90
2018-01-24T06:10:29.235Z,99.90
2018-01-24T06:13:02.785Z,99.90
2018-01-24T06:15:36.380Z,99.90
2018-01-24T06:18:09.986Z,99.90
2018-01-24T06:20:43.592Z,99.90
2018-01-24T06:23:17.236Z,99.90
2018-01-24T06:25:51.716Z,99.90
2018-01-24T06:28:25.289Z,99.90
2018-01-24T06:30:58.931Z,99.90
2018-01-24T06:33:32.516Z,99.90
2018-01-24T06:36:06.081Z,99.90
2018-01-24T06:38:39.626Z,99.90
2018-01-24T06:41:13.208Z,99.90
2018-01-24T06:43:46.820Z,99.90
2018-01-24T06:46:20.454Z,99.90
2018-01-24T06:48:54.114Z,99.90
2018-01-24T06:51:28.447Z,99.90
2018-01-24T06:54:02.133Z,99.90
2018-01-24T06:56:35.868Z,99.90
2018-01-24T06:59:09.410Z,99.90
2018-01-24T07:01:42.952Z,99.90
2018-01-24T07:04:16.659Z,99.90
2018-01-24T07:06:50.179Z,99.90
2018-01-24T07:09:23.770Z,99.90
2018-01-24T07:12:09.197Z,99.90
2018-01-24T07:14:44.417Z,99.90
2018-01-24T07:17:18.099Z,99.90
2018-01-24T07:19:51.597Z,99.90
2018-01-24T07:22:25.165Z,99.90
2018-01-24T07:24:58.852Z,99.90
2018-01-24T07:27:32.397Z,99.90
2018-01-24T07:30:05.993Z,99.90
2018-01-24T07:32:39.556Z,99.90
2018-01-24T07:35:13.099Z,99.90
2018-01-24T07:37:46.695Z,99.90
2018-01-24T07:40:20.256Z,99.90
2018-01-24T07:42:53.807Z,99.90
2018-01-24T07:45:28.179Z,99.90
2018-01-24T07:48:01.773Z,99.90
2018-01-24T07:50:35.489Z,99.90
2018-01-24T07:53:09.067Z,99.90
2018-01-24T07:55:42.609Z,99.90
2018-01-24T07:58:16.168Z,99.90
2018-01-24T08:00:49.807Z,99.90
2018-01-24T08:03:23.302Z,99.90
2018-01-24T08:05:56.882Z,99.90
2018-01-24T08:08:30.416Z,99.90
2018-01-24T08:11:04.095Z,99.90
2018-01-24T08:13:38.411Z,99.90
2018-01-24T08:16:12.839Z,99.90
2018-01-24T08:18:46.319Z,99.90
2018-01-24T08:21:19.929Z,99.90
2018-01-24T08:23:53.459Z,99.90
2018-01-24T08:26:27.009Z,99.90
2018-01-24T08:29:00.616Z,99.90
2018-01-24T08:31:34.224Z,99.90
2018-01-24T08:34:07.752Z,99.90
2018-01-24T08:36:41.552Z,99.90
2018-01-24T08:39:15.106Z,99.90
2018-01-24T08:41:48.659Z,99.90
2018-01-24T08:44:22.235Z,99.90
2018-01-24T08:46:55.948Z,99.90
2018-01-24T08:49:30.251Z,99.90
2018-01-24T08:52:04.080Z,99.90
2018-01-24T08:54:37.641Z,99.90
2018-01-24T08:57:11.179Z,99.90
2018-01-24T09:00:02.411Z,99.90
2018-01-24T09:02:53.725Z,99.90
2018-01-24T09:05:44.987Z,99.90
2018-01-24T09:08:36.163Z,99.90
2018-01-24T09:11:27.715Z,99.90
2018-01-24T09:14:19.030Z,99.90
2018-01-24T09:17:10.377Z,99.90
2018-01-24T09:20:02.464Z,99.90
2018-01-24T09:22:59.519Z,99.90
2018-01-24T09:25:33.857Z,99.90
2018-01-24T09:28:07.515Z,99.90
2018-01-24T09:30:41.796Z,99.90
2018-01-24T09:33:15.324Z,99.90
2018-01-24T09:35:48.852Z,99.90
2018-01-24T09:38:22.412Z,99.90
2018-01-24T09:40:55.968Z,99.90
2018-01-24T09:43:29.506Z,99.90
2018-01-24T09:46:03.112Z,99.90
2018-01-24T09:48:36.691Z,99.90
2018-01-24T09:51:10.284Z,99.90
2018-01-24T09:53:44.603Z,99.90
2018-01-24T09:56:18.266Z,99.90
2018-01-24T09:58:51.836Z,98.10
2018-01-24T10:01:25.408Z,98.30
2018-01-24T10:03:58.915Z,99.00
2018-01-24T10:06:32.490Z,99.80
2018-01-24T10:09:06.199Z,99.90
2018-01-24T10:11:39.941Z,99.90
2018-01-24T10:14:13.494Z,99.80
2018-01-24T10:16:47.106Z,99.90
2018-01-24T10:19:20.621Z,99.90
2018-01-24T10:21:54.115Z,99.90
2018-01-24T10:24:27.735Z,99.90
2018-01-24T10:27:01.286Z,97.60
2018-01-24T10:29:34.813Z,97.90
2018-01-24T10:32:08.375Z,99.90
2018-01-24T10:34:41.945Z,99.70
2018-01-24T10:37:15.490Z,99.00
2018-01-24T10:39:49.032Z,98.20
2018-01-24T10:42:22.602Z,98.90
2018-01-24T10:44:56.227Z,98.80
2018-01-24T10:47:29.731Z,99.10
2018-01-24T10:50:03.300Z,96.90
2018-01-24T10:52:36.867Z,95.10
2018-01-24T10:55:10.406Z,95.30
2018-01-24T10:57:44.119Z,95.40
2018-01-24T11:00:17.698Z,93.40
2018-01-24T11:02:51.238Z,93.00
2018-01-24T11:05:25.515Z,93.80
2018-01-24T11:07:58.991Z,93.80
2018-01-24T11:10:32.745Z,93.50
2018-01-24T11:13:06.305Z,94.50
2018-01-24T11:15:39.842Z,94.00
2018-01-24T11:18:13.417Z,94.80
2018-01-24T11:20:46.931Z,95.30
2018-01-24T11:23:20.517Z,95.90
2018-01-24T11:25:54.118Z,95.80
2018-01-24T11:28:27.747Z,95.20
2018-01-24T11:31:01.345Z,95.10
2018-01-24T11:33:34.912Z,92.00
2018-01-24T11:36:08.432Z,90.40
2018-01-24T11:38:42.028Z,91.30
2018-01-24T11:41:16.304Z,90.70
2018-01-24T11:43:49.876Z,90.80
2018-01-24T11:46:23.455Z,92.90
2018-01-24T11:48:57.763Z,79.30
2018-01-24T11:51:31.340Z,79.30
2018-01-24T11:54:04.927Z,85.10
2018-01-24T11:56:38.610Z,77.40
2018-01-24T11:59:12.289Z,80.20
2018-01-24T12:01:45.793Z,72.80
2018-01-24T12:04:20.078Z,79.80
2018-01-24T12:06:53.822Z,79.70
2018-01-24T12:09:27.455Z,72.20
2018-01-24T12:12:01.125Z,76.60
2018-01-24T12:14:34.691Z,69.30
2018-01-24T12:17:08.293Z,68.50
2018-01-24T12:19:41.815Z,66.00
2018-01-24T12:22:16.110Z,65.80
2018-01-24T12:24:49.809Z,65.80
2018-01-24T12:27:23.425Z,70.00
2018-01-24T12:29:56.911Z,66.00
2018-01-24T12:32:30.443Z,63.50
2018-01-24T12:35:04.726Z,64.20
2018-01-24T12:37:38.387Z,64.20
2018-01-24T12:40:11.908Z,60.70
2018-01-24T12:42:46.245Z,63.30
2018-01-24T12:45:19.739Z,63.00
2018-01-24T12:47:53.355Z,62.10
2018-01-24T12:50:27.665Z,61.90
2018-01-24T12:53:02.013Z,58.70
2018-01-24T12:55:35.566Z,58.60
2018-01-24T12:58:09.905Z,61.20
2018-01-24T13:00:43.474Z,61.10
2018-01-24T13:03:17.173Z,59.90
2018-01-24T13:05:50.693Z,60.00
2018-01-24T13:08:24.315Z,64.90
2018-01-24T13:10:58.004Z,64.40
2018-01-24T13:13:31.518Z,66.20
2018-01-24T13:16:05.101Z,64.70
2018-01-24T13:18:38.677Z,64.00
2018-01-24T13:21:12.224Z,62.20
2018-01-24T13:23:45.916Z,61.20
2018-01-24T13:26:19.466Z,61.60
2018-01-24T13:28:53.103Z,60.90
2018-01-24T13:31:26.695Z,61.50
2018-01-24T13:34:00.313Z,61.60
2018-01-24T13:36:34.624Z,61.80
2018-01-24T13:39:08.331Z,61.70
2018-01-24T13:41:41.833Z,62.50
2018-01-24T13:44:16.159Z,63.10
2018-01-24T13:46:49.679Z,63.10
2018-01-24T13:49:23.229Z,63.50
2018-01-24T13:51:56.863Z,63.00
2018-01-24T13:54:30.418Z,63.80
2018-01-24T13:57:04.867Z,63.90
2018-01-24T13:59:39.183Z,63.60
2018-01-24T14:02:12.743Z,63.50
2018-01-24T14:04:46.309Z,63.40
2018-01-24T14:07:19.856Z,62.60
2018-01-24T14:09:53.608Z,64.30
2018-01-24T14:12:27.119Z,64.70
2018-01-24T14:15:00.736Z,63.30
2018-01-24T14:17:34.252Z,63.30
2018-01-24T14:20:07.883Z,63.70
2018-01-24T14:22:41.495Z,63.40
2018-01-24T14:25:15.812Z,64.40
2018-01-24T14:27:49.525Z,64.40
2018-01-24T14:30:23.198Z,62.80
2018-01-24T14:32:57.520Z,62.40
2018-01-24T14:35:31.232Z,62.30
2018-01-24T14:38:04.799Z,62.60
2018-01-24T14:40:38.655Z,60.90
2018-01-24T14:43:12.318Z,61.90
2018-01-24T14:45:45.819Z,61.50
2018-01-24T14:48:19.355Z,61.60
2018-01-24T14:50:53.076Z,62.20
2018-01-24T14:53:26.642Z,63.60
2018-01-24T14:56:00.360Z,63.90
2018-01-24T14:58:34.020Z,63.70
2018-01-24T15:01:07.731Z,64.40
2018-01-24T15:03:41.334Z,65.20
2018-01-24T15:06:14.994Z,65.90
2018-01-24T15:08:48.580Z,65.70
2018-01-24T15:11:22.294Z,66.10
2018-01-24T15:13:56.080Z,66.40
2018-01-24T15:16:30.384Z,70.30
2018-01-24T15:19:04.066Z,69.40
2018-01-24T15:21:37.621Z,70.50
2018-01-24T15:24:11.204Z,72.10
2018-01-24T15:26:44.845Z,72.50
2018-01-24T15:29:19.095Z,73.30
2018-01-24T15:31:52.832Z,73.30
2018-01-24T15:34:26.407Z,73.40
2018-01-24T15:37:00.830Z,73.70
2018-01-24T15:39:34.520Z,75.00
2018-01-24T15:42:09.049Z,82.00
2018-01-24T15:44:42.603Z,81.60
2018-01-24T15:47:16.131Z,86.80
2018-01-24T15:49:50.459Z,90.30
2018-01-24T15:52:24.155Z,90.30
2018-01-24T15:54:58.650Z,90.60
2018-01-24T15:57:32.199Z,91.40
2018-01-24T16:00:05.857Z,92.70
2018-01-24T16:02:39.450Z,93.50
2018-01-24T16:05:13.770Z,94.00
2018-01-24T16:07:48.035Z,94.70
2018-01-24T16:10:21.563Z,94.70
2018-01-24T16:12:55.883Z,95.70
2018-01-24T16:15:30.162Z,97.40
2018-01-24T16:18:03.760Z,97.30
2018-01-24T16:20:37.366Z,99.00
2018-01-24T16:23:10.955Z,98.50
2018-01-24T16:25:45.276Z,99.90
2018-01-24T16:28:18.957Z,99.90
2018-01-24T16:30:52.464Z,99.90
2018-01-24T16:33:25.989Z,99.80
2018-01-24T16:36:00.343Z,99.90
2018-01-24T16:38:33.892Z,99.90
2018-01-24T16:41:07.399Z,99.90
2018-01-24T16:43:40.983Z,99.90
2018-01-24T16:46:14.511Z,99.90
2018-01-24T16:48:48.091Z,99.90
2018-01-24T16:51:21.600Z,99.90
2018-01-24T16:53:55.910Z,99.90
2018-01-24T16:56:30.315Z,99.90
2018-01-24T16:59:03.929Z,99.90
2018-01-24T17:01:37.662Z,99.90
2018-01-24T17:04:11.241Z,99.90
2018-01-24T17:06:45.539Z,99.90
2018-01-24T17:09:19.181Z,99.90
2018-01-24T17:11:52.727Z,99.90
2018-01-24T17:14:27.083Z,99.90
2018-01-24T17:17:01.482Z,99.90
2018-01-24T17:19:35.912Z,99.90
2018-01-24T17:22:09.650Z,99.90
2018-01-24T17:24:43.301Z,99.90
2018-01-24T17:27:17.640Z,99.90
2018-01-24T17:29:51.234Z,99.90
2018-01-24T17:32:24.819Z,99.90
2018-01-24T17:34:58.346Z,99.90
2018-01-24T17:37:31.931Z,99.90
2018-01-24T17:40:05.555Z,99.90
2018-01-24T17:42:39.224Z,99.90
2018-01-24T17:45:12.859Z,99.90
2018-01-24T17:47:46.446Z,99.90
2018-01-24T17:50:20.064Z,99.90
2018-01-24T17:52:53.739Z,99.90
2018-01-24T17:55:27.300Z,99.90
2018-01-24T17:58:00.835Z,99.90
2018-01-24T18:00:34.415Z,99.90
2018-01-24T18:03:08.056Z,99.90
2018-01-24T18:05:41.781Z,99.90
2018-01-24T18:08:15.559Z,99.90
2018-01-24T18:10:49.191Z,99.90
2018-01-24T18:13:22.963Z,99.90
2018-01-24T18:15:56.621Z,99.90
2018-01-24T18:18:30.295Z,99.90
2018-01-24T18:21:03.863Z,99.90
2018-01-24T18:23:37.439Z,99.90
2018-01-24T18:26:11.070Z,99.90
2018-01-24T18:28:44.622Z,99.90
2018-01-24T18:31:18.182Z,99.90
2018-01-24T18:33:51.801Z,99.90
2018-01-24T18:36:25.313Z,99.90
2018-01-24T18:38:59.028Z,99.90
2018-01-24T18:41:32.622Z,99.90
2018-01-24T18:44:06.161Z,99.90
2018-01-24T18:46:39.801Z,99.90
2018-01-24T18:49:13.493Z,99.90
2018-01-24T18:51:47.238Z,99.90
2018-01-24T18:54:20.830Z,99.90
2018-01-24T18:56:56.009Z,99.90
2018-01-24T18:59:29.732Z,99.90
2018-01-24T19:02:03.352Z,99.90
2018-01-24T19:04:36.997Z,99.90
2018-01-24T19:07:11.287Z,99.90
2018-01-24T19:09:44.937Z,99.90
2018-01-24T19:12:18.707Z,99.90
2018-01-24T19:14:52.215Z,99.90
2018-01-24T19:17:25.768Z,99.90
2018-01-24T19:20:00.092Z,99.90
2018-01-24T19:22:33.758Z,99.90
2018-01-24T19:25:07.288Z,99.90
2018-01-24T19:27:40.874Z,99.90
2018-01-24T19:30:15.210Z,99.90
2018-01-24T19:32:48.904Z,99.90
2018-01-24T19:35:22.500Z,99.90
2018-01-24T19:37:56.042Z,99.90
2018-01-24T19:40:29.695Z,99.90
2018-01-24T19:43:04.076Z,99.90
2018-01-24T19:45:37.874Z,99.90
2018-01-24T19:48:11.705Z,99.90
2018-01-24T19:50:45.401Z,99.90
2018-01-24T19:53:18.995Z,99.90
2018-01-24T19:55:52.515Z,99.90
2018-01-24T19:58:26.233Z,99.90
2018-01-24T20:00:59.858Z,99.90
2018-01-24T20:03:33.557Z,99.90
2018-01-24T20:06:07.169Z,99.90
2018-01-24T20:08:40.705Z,99.90
2018-01-24T20:11:14.262Z,99.90
2018-01-24T20:13:47.931Z,99.90
2018-01-24T20:16:21.559Z,99.90
2018-01-24T20:18:56.034Z,99.90
2018-01-24T20:21:29.759Z,99.90
2018-01-24T20:24:03.446Z,99.90
2018-01-24T20:26:37.754Z,99.90
2018-01-24T20:29:11.335Z,99.90
2018-01-24T20:31:44.927Z,99.90
2018-01-24T20:34:21.857Z,99.90
2018-01-24T20:36:55.425Z,99.90
2018-01-24T20:39:29.008Z,99.90
2018-01-24T20:42:02.592Z,99.90
2018-01-24T20:44:36.200Z,99.90
2018-01-24T20:47:09.907Z,99.90
2018-01-24T20:49:43.470Z,99.90
2018-01-24T20:52:17.058Z,99.90
2018-01-24T20:54:50.631Z,99.90
2018-01-24T20:57:24.322Z,99.90
2018-01-24T20:59:58.015Z,99.90
2018-01-24T21:02:31.621Z,99.90
2018-01-24T21:05:05.248Z,99.90
2018-01-24T21:07:38.772Z,99.90
2018-01-24T21:10:12.348Z,99.90
2018-01-24T21:12:46.904Z,99.90
2018-01-24T21:15:20.510Z,99.90
2018-01-24T21:17:54.109Z,99.90
2018-01-24T21:20:28.446Z,99.90
2018-01-24T21:23:02.070Z,99.90
2018-01-24T21:25:35.711Z,99.90
2018-01-24T21:28:24.976Z,99.90
2018-01-24T21:31:10.426Z,99.90
2018-01-24T21:33:48.644Z,99.90
2018-01-24T21:36:32.933Z,99.90
2018-01-24T21:39:06.673Z,99.90
2018-01-24T21:41:41.096Z,99.90
2018-01-24T21:44:15.435Z,99.90
2018-01-24T21:46:49.190Z,99.90
2018-01-24T21:49:22.775Z,99.90
2018-01-24T21:51:56.382Z,99.90
2018-01-24T21:54:30.136Z,99.90
2018-01-24T21:57:03.664Z,99.90
2018-01-24T21:59:37.448Z,99.90
2018-01-24T22:02:11.084Z,99.90
2018-01-24T22:04:44.643Z,99.90
2018-01-24T22:07:18.234Z,99.90
2018-01-24T22:15:54.347Z,99.90
2018-01-24T22:18:27.978Z,99.90
2018-01-24T22:21:02.354Z,99.90
2018-01-24T22:23:35.932Z,99.90
2018-01-24T22:26:09.491Z,99.90
2018-01-24T22:28:42.995Z,99.90
2018-01-24T22:31:17.469Z,99.90
2018-01-24T22:33:51.101Z,99.90
2018-01-24T22:36:24.737Z,99.90
2018-01-24T22:38:58.435Z,99.90
2018-01-24T22:41:32.017Z,99.90
2018-01-24T22:44:06.415Z,99.90
2018-01-24T22:46:40.057Z,99.90
2018-01-24T22:49:14.425Z,99.90
2018-01-24T22:51:47.985Z,99.90
2018-01-24T22:54:21.681Z,99.90
2018-01-24T22:56:55.247Z,99.90
2018-01-24T22:59:28.846Z,99.90
2018-01-24T23:02:03.413Z,99.90
2018-01-24T23:04:37.031Z,99.90
2018-01-24T23:07:10.629Z,99.90
2018-01-24T23:09:44.168Z,99.90
2018-01-24T23:12:17.728Z,99.90
2018-01-24T23:14:52.177Z,99.90
2018-01-24T23:17:25.843Z,99.90
2018-01-24T23:20:00.288Z,99.90
2018-01-24T23:22:34.038Z,99.90
2018-01-24T23:25:08.322Z,99.90
2018-01-24T23:27:41.982Z,99.90
2018-01-24T23:30:15.608Z,99.90
2018-01-24T23:32:49.913Z,99.90
2018-01-24T23:35:24.351Z,99.90
2018-01-24T23:37:57.929Z,99.90
2018-01-24T23:40:31.551Z,99.90
2018-01-24T23:43:05.083Z,99.90
2018-01-24T23:45:38.666Z,99.90
2018-01-24T23:48:12.374Z,99.90
2018-01-24T23:50:45.958Z,99.90
2018-01-24T23:53:19.528Z,99.90
2018-01-24T23:55:53.066Z,99.90
2018-01-24T23:58:26.758Z,99.90
